LFBC

Cazaux (BA 120) Air Base

Airport
ICAO code
LFBC
Summary
ICAO Region
EUR
ICAO Territory
Location

, Aquitaine

Serving
Cazaux
Elevation
84 ft
Coordinates
44° 31' 60" N , 1° 7' 30" W
Metar
Observation
LFBC 010530Z AUTO 28014KT 9999 SCT027/// BKN045/// BKN056/// ///CB 12/08 Q1018
Station
Cazaux
Date/Time
2023-04-01 05:30:00
Wind direction
280°
Wind speed
14 kts
Lowest cloud amount
scattered clouds
Temperature
12°C
Dew point
8°C
Humidity
76%
QNH
1018 hPa
Weather condition
n/a

Runways

Designator Length Width Surface Rops
6/24 2408 45 ASP No/No

Airport map

Aerial View

SKYbrary Partners:

Safety knowledge contributed by: